Time;durP1;ratioP1;P1;durP2;ratioP2;P2;SDS_P1;SDS_P2;PMS_P1;PMS_P2;Temp;Humidity;BMP_temperature;BMP_pressure;BME280_temperature;BME280_humidity;BME280_pressure;Samples;Min_cycle;Max_cycle;Signal;HPM_P1;HPM_P2
2023/10/16 00:01:38;;;;;;;1.63;0.40;;;7.80;99.90;;;;;;5100242;28;20043;-68
2023/10/16 00:04:07;;;;;;;2.28;0.30;;;7.90;99.90;;;;;;5102767;28;20043;-67
2023/10/16 00:06:34;;;;;;;4.45;0.52;;;7.90;99.90;;;;;;5103615;28;20036;-67
2023/10/16 00:09:10;;;;;;;5.70;0.80;;;7.90;99.90;;;;;;5133849;27;20469;-67
2023/10/16 00:11:37;;;;;;;3.90;0.65;;;7.80;99.90;;;;;;5115411;27;20048;-67
2023/10/16 00:14:14;;;;;;;1.88;0.60;;;7.90;99.90;;;;;;5105298;28;20096;-67
2023/10/16 00:16:43;;;;;;;3.03;0.57;;;7.90;99.90;;;;;;5103469;28;20454;-67
2023/10/16 00:19:11;;;;;;;3.60;0.80;;;7.90;99.90;;;;;;5099351;28;20525;-67
2023/10/16 00:21:43;;;;;;;3.13;0.40;;;7.90;99.90;;;;;;5104071;28;20473;-67
2023/10/16 00:24:10;;;;;;;2.97;0.43;;;7.90;99.90;;;;;;5102894;28;20378;-67
2023/10/16 00:26:35;;;;;;;2.90;0.52;;;7.90;99.90;;;;;;5101974;28;20035;-67
2023/10/16 00:29:19;;;;;;;1.25;0.20;;;7.80;99.90;;;;;;5101298;28;20093;-67
2023/10/16 00:31:51;;;;;;;2.08;0.30;;;7.90;99.90;;;;;;5131217;27;20166;-67
2023/10/16 00:34:22;;;;;;;2.38;0.35;;;7.90;99.90;;;;;;5085376;28;20090;-67
2023/10/16 00:36:54;;;;;;;1.83;0.30;;;7.90;99.90;;;;;;5100417;28;20058;-67
2023/10/16 00:39:20;;;;;;;2.80;0.50;;;7.90;99.90;;;;;;5134200;27;20134;-67
2023/10/16 00:41:49;;;;;;;3.25;0.40;;;7.90;99.90;;;;;;5102840;28;20043;-67
2023/10/16 00:44:16;;;;;;;2.83;0.60;;;7.90;99.90;;;;;;5104176;28;20086;-67
2023/10/16 00:46:48;;;;;;;1.83;0.50;;;7.90;99.90;;;;;;5105747;28;20189;-67
2023/10/16 00:49:14;;;;;;;2.35;0.85;;;7.90;99.90;;;;;;5102291;28;20085;-67
2023/10/16 00:51:41;;;;;;;3.67;0.60;;;7.90;99.90;;;;;;5108441;27;20059;-67
2023/10/16 00:54:28;;;;;;;5.53;0.40;;;7.90;99.90;;;;;;5106208;27;20057;-67
2023/10/16 00:56:59;;;;;;;6.30;0.30;;;7.90;99.90;;;;;;5110309;27;20065;-67
2023/10/16 00:59:25;;;;;;;2.75;0.30;;;7.80;99.90;;;;;;5135189;27;20474;-67
2023/10/16 01:02:04;;;;;;;1.15;0.30;;;7.90;99.90;;;;;;5104691;27;20036;-67
2023/10/16 01:04:31;;;;;;;5.28;1.02;;;7.90;99.90;;;;;;5106332;27;20122;-67
2023/10/16 01:06:58;;;;;;;3.65;0.38;;;7.90;99.90;;;;;;5106082;27;20134;-67
2023/10/16 01:09:23;;;;;;;5.80;0.70;;;7.90;99.90;;;;;;5103915;27;20131;-67
2023/10/16 01:11:50;;;;;;;2.47;0.47;;;7.90;99.90;;;;;;5105026;27;20047;-67
2023/10/16 01:14:17;;;;;;;2.97;0.95;;;7.80;99.90;;;;;;5105953;27;20032;-67
2023/10/16 01:16:43;;;;;;;2.13;0.52;;;7.90;99.90;;;;;;5106991;27;20048;-67
2023/10/16 01:19:10;;;;;;;4.25;0.35;;;7.80;99.90;;;;;;5104637;27;20592;-67
2023/10/16 01:21:36;;;;;;;3.15;0.22;;;7.80;99.90;;;;;;5102028;27;20040;-67
2023/10/16 01:24:16;;;;;;;4.32;0.40;;;7.90;99.90;;;;;;5109518;27;20394;-67
2023/10/16 01:26:42;;;;;;;5.70;0.50;;;7.90;99.90;;;;;;5105912;27;20039;-67
2023/10/16 01:29:14;;;;;;;5.82;0.93;;;8.00;99.90;;;;;;5136258;27;20061;-67
2023/10/16 01:31:43;;;;;;;1.83;0.20;;;8.00;99.90;;;;;;5134988;27;20052;-67
2023/10/16 01:34:12;;;;;;;1.23;0.20;;;8.20;99.90;;;;;;5103044;27;20036;-67
2023/10/16 01:36:45;;;;;;;2.33;0.22;;;8.00;99.90;;;;;;5107801;27;20158;-67
2023/10/16 01:39:47;;;;;;;2.10;0.52;;;8.00;99.90;;;;;;5108336;27;20035;-67
2023/10/16 01:41:56;;;;;;;1.00;0.20;;;8.00;99.90;;;;;;5105926;27;20035;-67
2023/10/16 01:44:22;;;;;;;1.88;0.30;;;8.00;99.90;;;;;;5105321;27;20516;-67
2023/10/16 01:46:48;;;;;;;2.65;0.20;;;8.10;99.90;;;;;;5103883;27;20047;-67
2023/10/16 01:49:13;;;;;;;1.45;0.20;;;8.10;99.90;;;;;;5102791;27;20497;-67
2023/10/16 01:51:43;;;;;;;2.95;0.20;;;8.10;99.90;;;;;;5106508;27;20035;-67
2023/10/16 01:54:14;;;;;;;1.98;0.20;;;8.20;99.90;;;;;;5102629;27;20043;-67
2023/10/16 01:56:41;;;;;;;1.58;0.30;;;8.10;99.90;;;;;;5105787;27;20614;-67
2023/10/16 01:59:07;;;;;;;2.70;0.20;;;8.10;99.90;;;;;;5109300;27;20050;-67
2023/10/16 02:01:32;;;;;;;2.92;0.30;;;8.10;99.90;;;;;;5101264;27;20032;-67
2023/10/16 02:04:01;;;;;;;2.72;0.20;;;8.10;99.90;;;;;;5138560;27;20477;-67
2023/10/16 02:06:26;;;;;;;3.10;0.40;;;8.10;99.90;;;;;;5105621;27;20099;-67
2023/10/16 02:08:52;;;;;;;0.85;0.17;;;8.10;99.90;;;;;;5105338;27;20043;-67
2023/10/16 02:11:17;;;;;;;1.58;0.20;;;8.20;99.90;;;;;;5134850;27;20564;-67
2023/10/16 02:13:43;;;;;;;3.53;0.20;;;8.20;99.90;;;;;;5107880;27;20141;-67
2023/10/16 02:16:12;;;;;;;3.78;0.22;;;8.20;99.90;;;;;;5107376;27;20034;-67
2023/10/16 02:18:44;;;;;;;3.42;0.30;;;8.20;99.90;;;;;;5104798;27;20431;-67
2023/10/16 02:21:14;;;;;;;2.58;0.35;;;8.10;99.90;;;;;;5104471;27;20076;-67
2023/10/16 02:23:40;;;;;;;1.13;0.20;;;8.10;99.90;;;;;;5105273;27;20658;-67
2023/10/16 02:26:06;;;;;;;2.08;0.20;;;8.10;99.90;;;;;;5105872;27;20028;-67
2023/10/16 02:28:32;;;;;;;2.30;0.47;;;8.00;99.90;;;;;;5102645;27;20050;-67
2023/10/16 02:31:14;;;;;;;1.80;0.10;;;8.00;99.90;;;;;;5107564;27;20088;-67
2023/10/16 02:33:46;;;;;;;1.65;0.57;;;8.10;99.90;;;;;;5135715;27;20130;-67
2023/10/16 02:36:15;;;;;;;4.35;0.30;;;8.20;99.90;;;;;;5104805;27;20436;-67
2023/10/16 02:38:43;;;;;;;2.58;0.40;;;8.10;99.90;;;;;;5103916;27;20063;-67
2023/10/16 02:41:09;;;;;;;0.65;0.20;;;8.10;99.90;;;;;;5106724;27;20036;-67
2023/10/16 02:43:41;;;;;;;2.13;0.32;;;8.20;99.90;;;;;;5107310;27;20047;-67
2023/10/16 02:46:10;;;;;;;1.25;0.30;;;8.10;99.90;;;;;;5103283;27;20036;-67
2023/10/16 02:48:36;;;;;;;3.33;0.57;;;8.10;99.90;;;;;;5102178;27;20031;-67
2023/10/16 02:51:02;;;;;;;0.68;0.20;;;8.10;99.90;;;;;;5103409;27;20032;-67
2023/10/16 02:53:29;;;;;;;1.40;0.20;;;8.00;99.90;;;;;;5101519;28;20050;-67
2023/10/16 02:56:14;;;;;;;0.70;0.20;;;8.00;99.90;;;;;;5106334;27;20490;-67
2023/10/16 02:58:43;;;;;;;0.43;0.15;;;8.00;99.90;;;;;;5105992;27;20126;-67
2023/10/16 03:01:14;;;;;;;1.08;0.40;;;7.80;99.90;;;;;;5102647;27;20116;-67
2023/10/16 03:03:43;;;;;;;1.02;0.20;;;7.80;99.90;;;;;;5107838;27;20078;-67
2023/10/16 03:06:09;;;;;;;1.77;0.25;;;7.80;99.90;;;;;;5136009;27;20062;-67
2023/10/16 03:08:36;;;;;;;1.95;0.30;;;7.70;99.90;;;;;;5103548;27;20130;-67
2023/10/16 03:11:06;;;;;;;1.10;0.30;;;7.70;99.90;;;;;;5103828;27;20044;-67
2023/10/16 03:13:36;;;;;;;0.32;0.22;;;7.60;99.90;;;;;;5106416;27;20084;-67
2023/10/16 03:16:07;;;;;;;1.67;0.35;;;7.60;99.90;;;;;;5101599;28;20043;-67
2023/10/16 03:18:33;;;;;;;2.60;0.30;;;7.60;99.90;;;;;;5106794;27;20043;-67
2023/10/16 03:21:50;;;;;;;1.67;0.38;;;7.60;99.90;;;;;;5102879;27;20032;-67
2023/10/16 03:23:49;;;;;;;1.40;0.38;;;7.60;99.90;;;;;;5099040;28;20041;-67
2023/10/16 03:26:28;;;;;;;2.42;0.40;;;7.60;99.90;;;;;;5100691;28;20075;-67
2023/10/16 03:28:58;;;;;;;1.92;0.40;;;7.70;99.90;;;;;;5118690;27;20581;-67
2023/10/16 03:31:24;;;;;;;1.20;0.73;;;7.70;99.90;;;;;;5099250;27;20036;-67
2023/10/16 03:33:50;;;;;;;3.40;1.20;;;7.70;99.90;;;;;;5106233;27;20031;-67
2023/10/16 03:36:17;;;;;;;3.45;0.82;;;7.70;99.90;;;;;;5104629;27;20126;-67
2023/10/16 03:38:43;;;;;;;3.85;0.50;;;7.80;99.90;;;;;;5100534;28;20174;-67
2023/10/16 03:43:48;;;;;;;2.10;0.50;;;7.80;99.90;;;;;;5104180;28;20541;-67
2023/10/16 03:46:14;;;;;;;3.60;0.50;;;7.80;99.90;;;;;;5100259;28;20075;-67
2023/10/16 03:48:41;;;;;;;1.38;0.68;;;7.80;99.90;;;;;;5101210;27;20063;-67
2023/10/16 03:51:07;;;;;;;1.90;0.50;;;7.80;99.90;;;;;;5132172;27;20452;-67
2023/10/16 03:53:35;;;;;;;0.70;0.40;;;7.90;99.90;;;;;;5101358;28;20118;-67
2023/10/16 03:56:05;;;;;;;0.85;0.20;;;7.90;99.90;;;;;;5098376;28;20031;-67
2023/10/16 03:58:34;;;;;;;2.55;0.57;;;7.90;99.90;;;;;;5104668;28;20039;-67
2023/10/16 04:01:07;;;;;;;1.70;0.50;;;7.90;99.90;;;;;;5102203;28;20409;-67
2023/10/16 04:03:56;;;;;;;5.50;0.43;;;7.90;99.90;;;;;;5101773;28;20533;-67
2023/10/16 04:06:23;;;;;;;1.27;0.50;;;7.90;99.90;;;;;;5105483;28;20546;-67
2023/10/16 04:08:53;;;;;;;4.35;0.60;;;8.00;99.90;;;;;;5102715;28;20039;-67
2023/10/16 04:11:24;;;;;;;1.83;0.55;;;8.00;99.90;;;;;;5102936;28;20035;-67
2023/10/16 04:13:50;;;;;;;4.90;0.65;;;8.10;99.90;;;;;;5102231;28;20114;-67
2023/10/16 04:19:36;;;;;;;3.55;0.80;;;8.10;99.90;;;;;;5133254;27;20044;-67
2023/10/16 04:22:07;;;;;;;2.15;0.40;;;8.20;99.90;;;;;;5098534;28;21584;-68
2023/10/16 04:24:40;;;;;;;1.70;0.43;;;8.20;99.90;;;;;;5103225;27;20126;-67
2023/10/16 04:29:45;;;;;;;3.65;0.55;;;8.20;99.90;;;;;;5102616;27;20058;-67
2023/10/16 04:32:40;;;;;;;1.83;0.50;;;8.20;99.90;;;;;;5100518;27;20048;-67
2023/10/16 04:37:54;;;;;;;2.05;0.40;;;8.40;99.90;;;;;;5106447;27;20051;-67
2023/10/16 04:43:37;;;;;;;2.17;0.50;;;8.40;99.90;;;;;;5104631;27;20054;-67
2023/10/16 04:46:23;;;;;;;1.85;0.30;;;8.30;99.90;;;;;;5106312;27;20118;-67
2023/10/16 04:48:49;;;;;;;2.85;0.43;;;8.40;99.90;;;;;;5106216;27;20054;-67
2023/10/16 04:51:16;;;;;;;1.80;0.30;;;8.40;99.90;;;;;;5136699;27;20040;-67
2023/10/16 04:53:59;;;;;;;1.15;0.55;;;8.30;99.90;;;;;;5104206;27;20031;-67
2023/10/16 05:05:32;;;;;;;6.82;0.60;;;8.30;99.90;;;;;;5104678;27;20489;-67
2023/10/16 05:07:46;;;;;;;5.30;0.60;;;8.40;99.90;;;;;;5102667;27;20054;-67
2023/10/16 05:10:17;;;;;;;2.95;0.70;;;8.30;99.90;;;;;;5104224;27;20059;-67
2023/10/16 05:15:41;;;;;;;5.13;0.88;;;8.40;99.90;;;;;;5131766;27;20035;-67
2023/10/16 05:18:20;;;;;;;1.33;0.47;;;8.40;99.90;;;;;;5106602;27;20032;-67
2023/10/16 06:15:31;;;;;;;2.90;0.90;;;8.60;99.90;;;;;;5099397;27;20401;-67
2023/10/16 06:18:04;;;;;;;2.13;0.80;;;8.60;99.90;;;;;;5100206;27;20378;-67
2023/10/16 06:20:31;;;;;;;3.33;1.02;;;8.70;99.90;;;;;;5097852;27;21267;-67
2023/10/16 06:22:58;;;;;;;3.47;0.90;;;8.70;99.90;;;;;;5097238;27;20112;-67
2023/10/16 06:25:28;;;;;;;4.13;0.75;;;8.70;99.90;;;;;;5094316;27;20117;-67
2023/10/16 06:27:55;;;;;;;4.22;1.17;;;8.80;99.90;;;;;;5096572;27;20048;-67
2023/10/16 06:30:23;;;;;;;2.03;0.80;;;8.80;99.90;;;;;;5097035;27;20045;-67
2023/10/16 06:32:49;;;;;;;3.60;1.35;;;8.80;99.90;;;;;;5096532;27;20043;-67
2023/10/16 06:35:16;;;;;;;2.03;0.80;;;8.90;99.90;;;;;;5096949;27;20501;-67
2023/10/16 06:37:51;;;;;;;2.53;0.88;;;8.90;99.90;;;;;;5096508;27;20107;-67
2023/10/16 06:40:26;;;;;;;2.90;0.73;;;8.90;99.90;;;;;;5097924;27;20115;-67
2023/10/16 06:43:09;;;;;;;2.92;0.75;;;8.90;99.90;;;;;;5094166;27;20054;-67
2023/10/16 06:45:42;;;;;;;3.42;0.80;;;8.90;99.90;;;;;;5098691;27;21021;-67
2023/10/16 06:48:09;;;;;;;3.95;0.63;;;8.90;99.90;;;;;;5095725;27;20045;-67
2023/10/16 06:50:40;;;;;;;11.60;0.88;;;8.90;99.90;;;;;;5126455;27;20043;-67
2023/10/16 06:53:05;;;;;;;3.20;0.90;;;9.00;99.90;;;;;;5111009;27;20491;-67
2023/10/16 06:55:31;;;;;;;2.13;0.70;;;9.00;99.90;;;;;;5094244;27;20047;-67
2023/10/16 06:57:57;;;;;;;2.80;0.93;;;9.10;99.90;;;;;;5096915;27;20394;-67
2023/10/16 07:00:23;;;;;;;2.15;0.50;;;9.20;99.90;;;;;;5095265;27;20080;-67
2023/10/16 07:02:57;;;;;;;4.13;0.95;;;9.10;99.90;;;;;;5099230;27;20046;-67
2023/10/16 07:05:43;;;;;;;4.30;1.10;;;9.10;99.90;;;;;;5096938;27;20044;-67
2023/10/16 07:08:16;;;;;;;;;;;9.20;99.90;;;;;;5103532;27;20050;-67
2023/10/16 07:10:49;;;;;;;2.72;1.15;;;9.20;99.90;;;;;;5095050;27;20032;-67
2023/10/16 07:13:29;;;;;;;3.90;0.75;;;9.20;99.90;;;;;;5090796;27;20055;-67
2023/10/16 07:15:59;;;;;;;4.20;0.82;;;9.30;99.90;;;;;;5095103;27;21878;-67
2023/10/16 07:18:26;;;;;;;3.35;0.77;;;9.30;99.90;;;;;;5094618;27;20052;-67
2023/10/16 07:23:29;;;;;;;1.23;0.70;;;9.30;99.90;;;;;;5096559;27;20453;-67
2023/10/16 07:25:59;;;;;;;3.05;1.05;;;9.50;99.90;;;;;;5098896;27;20051;-67
2023/10/16 07:28:27;;;;;;;3.20;0.95;;;9.40;99.90;;;;;;5124697;27;20094;-67
2023/10/16 07:30:58;;;;;;;3.58;0.63;;;9.50;99.90;;;;;;5093588;27;20047;-67
2023/10/16 07:33:24;;;;;;;6.10;1.02;;;9.50;99.90;;;;;;5123865;27;20049;-67
2023/10/16 07:35:51;;;;;;;3.22;0.70;;;9.60;99.90;;;;;;5092903;27;20067;-67
2023/10/16 07:38:22;;;;;;;2.45;0.93;;;9.50;99.90;;;;;;5090810;27;20048;-67
2023/10/16 07:40:52;;;;;;;4.75;0.93;;;9.60;99.90;;;;;;5123941;27;20861;-67
2023/10/16 07:43:26;;;;;;;2.65;0.80;;;9.70;99.90;;;;;;5094649;27;20091;-68
2023/10/16 07:48:53;;;;;;;3.08;0.95;;;9.80;99.90;;;;;;5078314;28;20048;-68
2023/10/16 07:51:20;;;;;;;3.72;0.73;;;9.80;99.90;;;;;;5093699;28;20089;-68
2023/10/16 07:53:50;;;;;;;4.07;0.82;;;9.90;99.90;;;;;;5092210;28;20035;-68
2023/10/16 07:56:25;;;;;;;2.90;1.15;;;9.90;99.90;;;;;;5095772;28;20515;-68
2023/10/16 07:58:54;;;;;;;4.82;0.80;;;10.00;99.90;;;;;;5096267;28;20125;-68
2023/10/16 08:04:19;;;;;;;1.73;0.40;;;10.10;99.90;;;;;;5096574;27;20048;-68
2023/10/16 08:06:46;;;;;;;2.05;0.50;;;10.20;99.90;;;;;;5097946;27;20374;-68
2023/10/16 08:11:57;;;;;;;4.22;0.77;;;10.40;99.90;;;;;;5096491;27;20043;-68
2023/10/16 08:14:32;;;;;;;1.98;0.50;;;10.40;99.90;;;;;;5097797;27;20048;-68
2023/10/16 08:17:00;;;;;;;4.95;1.38;;;10.50;99.90;;;;;;5100582;27;20729;-68
2023/10/16 08:19:26;;;;;;;2.30;0.60;;;10.50;99.90;;;;;;5096924;27;20035;-68
2023/10/16 08:21:56;;;;;;;5.70;1.15;;;10.60;99.90;;;;;;5096899;27;20050;-68
2023/10/16 08:24:24;;;;;;;3.78;0.55;;;10.70;99.90;;;;;;5097951;27;20089;-68
2023/10/16 08:26:50;;;;;;;3.67;0.80;;;10.70;99.90;;;;;;5097098;27;20150;-68
2023/10/16 08:31:47;;;;;;;1.65;0.47;;;10.70;99.90;;;;;;5098090;27;21279;-68
2023/10/16 08:34:22;;;;;;;2.65;0.40;;;10.80;99.90;;;;;;5128320;27;20043;-68
2023/10/16 08:36:51;;;;;;;2.97;0.77;;;10.90;99.90;;;;;;5124943;27;20051;-68
2023/10/16 08:39:19;;;;;;;4.82;0.60;;;10.90;99.90;;;;;;5125848;27;20047;-68
2023/10/16 08:41:51;;;;;;;3.53;0.50;;;11.00;99.90;;;;;;5097532;27;20040;-68
2023/10/16 08:44:18;;;;;;;4.32;1.00;;;11.20;99.90;;;;;;5101853;27;20035;-68
2023/10/16 08:46:45;;;;;;;3.03;0.60;;;11.20;99.90;;;;;;5094474;27;20044;-67
2023/10/16 08:49:12;;;;;;;4.30;0.93;;;11.30;99.90;;;;;;5097329;27;20042;-67
2023/10/16 08:51:38;;;;;;;5.32;0.60;;;11.40;99.90;;;;;;5101160;27;20044;-67
2023/10/16 08:54:05;;;;;;;3.80;0.55;;;11.50;99.90;;;;;;5102362;27;20047;-68
2023/10/16 08:56:31;;;;;;;1.48;0.30;;;11.60;99.90;;;;;;5098834;27;20464;-68
2023/10/16 08:59:01;;;;;;;4.05;0.68;;;11.60;99.90;;;;;;5100982;27;20036;-68
2023/10/16 09:01:29;;;;;;;3.78;0.47;;;11.70;99.90;;;;;;5096490;27;20051;-68
2023/10/16 09:03:59;;;;;;;2.63;0.70;;;11.70;99.90;;;;;;5100070;27;20427;-67
2023/10/16 09:06:25;;;;;;;3.33;0.32;;;11.70;99.90;;;;;;5098274;27;20808;-67
2023/10/16 09:08:52;;;;;;;2.45;0.68;;;11.70;99.90;;;;;;5095670;27;20039;-68
2023/10/16 09:11:21;;;;;;;4.90;0.77;;;11.70;99.90;;;;;;5095586;27;20571;-67
2023/10/16 09:13:51;;;;;;;3.08;0.55;;;11.60;99.90;;;;;;5126708;27;20765;-67
2023/10/16 09:16:23;;;;;;;6.15;1.58;;;11.60;99.90;;;;;;5097010;27;20043;-67
2023/10/16 09:18:53;;;;;;;3.42;0.77;;;11.40;99.90;;;;;;5097108;27;20435;-67
2023/10/16 09:21:27;;;;;;;2.35;0.43;;;11.50;99.90;;;;;;5127335;27;20047;-67
2023/10/16 09:23:58;;;;;;;5.65;1.33;;;11.50;99.90;;;;;;5099893;27;20039;-67
2023/10/16 09:26:25;;;;;;;6.60;0.60;;;11.60;99.90;;;;;;5097891;27;20058;-68
2023/10/16 09:29:15;;;;;;;4.53;0.40;;;11.60;99.90;;;;;;5096865;27;20105;-67
2023/10/16 09:31:47;;;;;;;4.70;0.50;;;11.60;99.90;;;;;;5101832;27;20244;-68
2023/10/16 09:34:17;;;;;;;4.40;0.40;;;11.70;99.90;;;;;;5100293;27;20661;-68
2023/10/16 09:37:14;;;;;;;2.78;0.38;;;11.70;99.90;;;;;;5093353;27;21726;-68
2023/10/16 09:39:36;;;;;;;4.43;0.43;;;11.80;99.90;;;;;;5096996;27;20475;-67
2023/10/16 09:42:12;;;;;;;2.78;0.68;;;11.90;99.90;;;;;;5099758;27;20035;-67
2023/10/16 09:44:40;;;;;;;4.82;0.80;;;12.00;99.90;;;;;;5100986;27;20105;-68
2023/10/16 09:47:25;;;;;;;6.57;0.82;;;12.00;99.90;;;;;;5127758;27;20139;-68
2023/10/16 09:49:57;;;;;;;3.55;0.45;;;12.00;99.90;;;;;;5096192;27;20047;-68
2023/10/16 09:52:24;;;;;;;5.60;0.55;;;12.10;99.90;;;;;;5126789;27;20058;-68
2023/10/16 09:54:51;;;;;;;4.15;0.60;;;12.10;99.90;;;;;;5098664;27;20398;-68
2023/10/16 09:57:19;;;;;;;4.70;0.50;;;12.10;99.90;;;;;;5098188;27;20044;-68
2023/10/16 09:59:45;;;;;;;4.53;0.55;;;12.30;99.90;;;;;;5099959;27;20549;-68
2023/10/16 10:02:25;;;;;;;2.75;0.63;;;12.30;99.90;;;;;;5097185;27;20048;-68
2023/10/16 10:05:08;;;;;;;7.13;0.70;;;12.50;99.90;;;;;;5097160;27;20039;-68
2023/10/16 10:07:38;;;;;;;3.97;0.50;;;12.60;99.90;;;;;;5095496;27;20043;-68
2023/10/16 10:12:56;;;;;;;4.90;0.93;;;12.70;99.90;;;;;;5115210;27;20051;-68
2023/10/16 10:15:28;;;;;;;3.75;0.60;;;12.80;99.90;;;;;;5125835;27;20075;-68
2023/10/16 10:17:58;;;;;;;3.60;0.98;;;12.80;99.90;;;;;;5125605;27;20055;-68
2023/10/16 10:20:39;;;;;;;5.53;1.30;;;12.80;99.90;;;;;;5093589;27;20130;-68
2023/10/16 10:23:08;;;;;;;4.40;0.70;;;12.80;99.90;;;;;;5122056;27;20058;-68
2023/10/16 10:25:41;;;;;;;3.80;0.52;;;12.80;99.90;;;;;;5094741;27;20047;-68
2023/10/16 10:28:22;;;;;;;3.92;0.45;;;12.80;99.90;;;;;;5090234;27;20044;-68
2023/10/16 10:30:50;;;;;;;4.95;0.60;;;12.90;99.90;;;;;;5121689;27;20438;-68
2023/10/16 10:33:42;;;;;;;6.88;1.73;;;12.90;99.90;;;;;;5121940;27;20040;-68
2023/10/16 10:36:32;;;;;;;3.35;0.50;;;12.80;99.90;;;;;;5092274;27;20042;-68
2023/10/16 10:39:20;;;;;;;3.13;0.35;;;12.90;99.90;;;;;;5094844;27;20051;-68
2023/10/16 10:41:54;;;;;;;2.88;0.60;;;12.90;99.90;;;;;;5090628;27;20089;-68
2023/10/16 10:44:35;;;;;;;1.33;0.30;;;13.00;99.90;;;;;;5093977;27;20027;-68
2023/10/16 10:47:14;;;;;;;3.35;0.43;;;13.00;99.90;;;;;;5108754;27;20055;-68
2023/10/16 10:49:42;;;;;;;2.50;0.47;;;13.30;99.90;;;;;;5122099;27;20519;-68
2023/10/16 10:52:07;;;;;;;3.20;0.30;;;13.30;99.90;;;;;;5121898;27;20055;-68
2023/10/16 10:54:34;;;;;;;3.22;0.50;;;13.40;99.90;;;;;;5095494;27;20082;-68
2023/10/16 10:57:07;;;;;;;3.63;0.50;;;13.50;99.90;;;;;;5094472;27;20382;-68
2023/10/16 10:59:47;;;;;;;4.32;0.60;;;13.60;99.90;;;;;;5090106;27;20511;-68
2023/10/16 11:04:58;;;;;;;4.32;0.40;;;13.80;99.90;;;;;;5095311;27;20047;-68
2023/10/16 11:07:59;;;;;;;3.83;0.68;;;13.90;99.90;;;;;;5094705;27;20055;-68
2023/10/16 11:10:24;;;;;;;5.00;0.73;;;14.00;99.90;;;;;;5120372;27;20054;-68
2023/10/16 11:12:50;;;;;;;4.32;0.40;;;14.20;99.90;;;;;;5094375;27;20452;-68
2023/10/16 11:15:16;;;;;;;5.65;0.70;;;14.40;99.90;;;;;;5094457;27;20047;-68
2023/10/16 11:17:44;;;;;;;4.75;0.28;;;14.20;99.90;;;;;;5097307;27;20046;-68
2023/10/16 11:22:46;;;;;;;2.67;0.47;;;14.00;99.90;;;;;;5096304;27;20044;-68
2023/10/16 11:25:13;;;;;;;7.68;1.35;;;13.90;99.90;;;;;;5098231;27;20468;-68
2023/10/16 11:27:42;;;;;;;4.43;0.68;;;13.90;99.90;;;;;;5093371;27;20047;-68
2023/10/16 11:30:18;;;;;;;2.78;0.32;;;13.90;99.90;;;;;;5094837;27;20445;-68
2023/10/16 11:32:46;;;;;;;3.33;0.40;;;13.80;99.90;;;;;;5095413;27;20056;-68
2023/10/16 11:35:17;;;;;;;4.43;0.40;;;13.60;99.90;;;;;;5096176;27;20035;-68
2023/10/16 11:37:44;;;;;;;4.25;0.38;;;13.60;99.90;;;;;;5096383;27;20039;-68
2023/10/16 11:40:24;;;;;;;3.13;0.57;;;13.50;99.90;;;;;;5093597;27;20114;-68
2023/10/16 11:42:52;;;;;;;3.25;0.38;;;13.50;99.90;;;;;;5096114;28;20035;-68
2023/10/16 11:45:21;;;;;;;2.88;0.40;;;13.50;99.90;;;;;;5095458;27;20160;-68
2023/10/16 11:50:40;;;;;;;3.45;0.50;;;13.50;99.90;;;;;;5096780;28;20052;-68
2023/10/16 11:53:09;;;;;;;3.17;0.70;;;13.50;99.90;;;;;;5093978;27;20130;-68
2023/10/16 11:55:39;;;;;;;2.83;0.85;;;13.60;99.90;;;;;;5121913;27;20043;-68
2023/10/16 11:58:08;;;;;;;2.83;0.55;;;13.70;99.90;;;;;;5097596;28;20389;-68
2023/10/16 12:00:43;;;;;;;5.00;1.10;;;13.90;99.90;;;;;;5091872;28;20062;-68
2023/10/16 12:03:17;;;;;;;2.72;0.60;;;14.00;99.90;;;;;;5097709;28;20124;-68
2023/10/16 12:05:43;;;;;;;3.75;0.50;;;14.00;99.90;;;;;;5095306;28;20043;-68
2023/10/16 12:08:09;;;;;;;1.92;0.60;;;14.10;99.90;;;;;;5098213;28;20039;-68
2023/10/16 12:10:38;;;;;;;3.95;0.50;;;14.10;99.90;;;;;;5094338;27;20112;-68
2023/10/16 12:13:04;;;;;;;6.45;0.40;;;14.00;99.90;;;;;;5095106;28;20096;-68
2023/10/16 12:15:31;;;;;;;4.32;0.40;;;14.10;99.90;;;;;;5095662;28;20183;-68
2023/10/16 12:18:00;;;;;;;8.02;0.50;;;14.10;99.90;;;;;;5120991;27;20047;-68
2023/10/16 12:20:27;;;;;;;3.53;0.50;;;14.10;99.90;;;;;;5096845;28;20135;-68
2023/10/16 12:22:57;;;;;;;1.20;0.40;;;14.00;99.90;;;;;;5096569;28;20063;-68
2023/10/16 12:25:23;;;;;;;2.67;0.40;;;14.10;99.90;;;;;;5097983;28;20048;-68
2023/10/16 12:27:50;;;;;;;1.48;0.30;;;14.10;99.90;;;;;;5095348;28;20085;-68
2023/10/16 12:30:17;;;;;;;3.88;0.55;;;14.10;99.90;;;;;;5096094;28;20035;-68
2023/10/16 12:32:42;;;;;;;3.40;0.63;;;14.10;99.90;;;;;;5096396;28;20032;-68
2023/10/16 12:35:09;;;;;;;3.63;0.85;;;14.10;99.90;;;;;;5097999;28;20548;-68
2023/10/16 12:37:35;;;;;;;2.75;0.50;;;14.20;99.90;;;;;;5121841;27;20094;-68
2023/10/16 12:40:24;;;;;;;4.53;0.65;;;14.10;99.90;;;;;;5093851;28;20474;-68
2023/10/16 12:42:47;;;;;;;;;;;14.20;99.90;;;;;;5096576;28;20051;-68
2023/10/16 12:45:12;;;;;;;6.78;1.25;;;14.10;99.90;;;;;;5093647;28;20011;-68
2023/10/16 12:47:38;;;;;;;5.72;0.60;;;14.20;99.90;;;;;;5126317;27;20048;-68
2023/10/16 12:50:05;;;;;;;5.05;0.68;;;14.20;99.90;;;;;;5101303;27;20313;-68
2023/10/16 12:52:31;;;;;;;4.32;0.43;;;14.20;99.90;;;;;;5093314;27;20085;-68
2023/10/16 12:55:00;;;;;;;4.30;1.02;;;14.20;99.90;;;;;;5125019;27;20652;-68
2023/10/16 12:57:27;;;;;;;2.72;0.50;;;14.20;99.90;;;;;;5081711;27;20047;-68
2023/10/16 12:59:56;;;;;;;2.88;0.52;;;14.10;99.90;;;;;;5098981;27;20109;-68
2023/10/16 13:02:25;;;;;;;5.00;0.60;;;14.10;99.90;;;;;;5097894;27;20035;-68
2023/10/16 13:04:51;;;;;;;4.63;1.15;;;14.10;99.90;;;;;;5098607;27;20039;-68
2023/10/16 13:07:18;;;;;;;3.78;0.43;;;14.00;99.90;;;;;;5095262;27;20777;-68
2023/10/16 13:09:44;;;;;;;3.17;0.40;;;14.00;99.90;;;;;;5098619;27;20126;-68
2023/10/16 13:12:10;;;;;;;2.55;0.93;;;13.90;99.90;;;;;;5102180;27;20485;-68
2023/10/16 13:14:36;;;;;;;3.17;0.60;;;13.90;99.90;;;;;;5106871;27;20044;-68
2023/10/16 13:17:01;;;;;;;5.97;0.70;;;13.90;99.90;;;;;;5105302;27;20040;-68
2023/10/16 13:19:27;;;;;;;2.00;0.52;;;13.70;99.90;;;;;;5101753;27;20035;-68
2023/10/16 13:21:53;;;;;;;4.88;0.40;;;13.90;99.90;;;;;;5103436;27;20162;-68
2023/10/16 13:24:20;;;;;;;4.45;0.57;;;13.70;99.90;;;;;;5098466;27;20575;-68
2023/10/16 13:26:47;;;;;;;2.13;0.75;;;13.60;99.90;;;;;;5103306;27;20092;-68
2023/10/16 13:29:16;;;;;;;2.72;0.65;;;13.60;99.90;;;;;;5102656;27;20050;-68
2023/10/16 13:31:46;;;;;;;2.33;0.50;;;13.60;99.90;;;;;;5099776;27;20431;-68
2023/10/16 13:34:17;;;;;;;4.47;0.98;;;13.60;99.90;;;;;;5098980;27;20035;-68
2023/10/16 13:37:28;;;;;;;6.80;0.85;;;13.60;99.90;;;;;;5099796;27;20154;-69
2023/10/16 13:39:44;;;;;;;3.47;0.40;;;13.60;99.90;;;;;;5086957;27;20346;-69
2023/10/16 13:42:10;;;;;;;1.95;0.32;;;13.60;99.90;;;;;;5098465;27;20039;-69
2023/10/16 13:44:36;;;;;;;2.42;0.50;;;13.60;99.90;;;;;;5098956;27;20897;-69
2023/10/16 13:47:08;;;;;;;3.38;0.82;;;13.60;99.90;;;;;;5093223;27;20054;-69
2023/10/16 13:49:37;;;;;;;2.85;0.65;;;13.60;99.90;;;;;;5125727;27;20055;-69
2023/10/16 13:52:07;;;;;;;4.50;0.63;;;13.60;99.90;;;;;;5125329;27;20736;-68
2023/10/16 13:54:38;;;;;;;2.13;0.32;;;13.60;99.90;;;;;;5098487;27;20035;-69
2023/10/16 13:57:04;;;;;;;3.72;0.30;;;13.70;99.90;;;;;;5096084;27;20096;-69
2023/10/16 13:59:30;;;;;;;2.20;0.40;;;13.70;99.90;;;;;;5097116;27;20038;-69
2023/10/16 14:01:56;;;;;;;3.97;0.50;;;13.70;99.90;;;;;;5125944;27;20039;-69
2023/10/16 14:04:25;;;;;;;1.25;0.30;;;13.70;99.90;;;;;;5092102;27;22161;-69
2023/10/16 14:06:51;;;;;;;4.45;0.40;;;13.70;99.90;;;;;;5109394;27;20071;-69
2023/10/16 14:09:27;;;;;;;5.22;0.50;;;13.60;99.90;;;;;;5125069;27;20178;-69
2023/10/16 14:11:53;;;;;;;;;;;14.00;99.90;;;;;;5126771;27;20535;-69
2023/10/16 14:14:20;;;;;;;4.90;0.50;;;13.70;99.90;;;;;;5097561;27;19973;-69
2023/10/16 14:17:03;;;;;;;4.57;0.40;;;13.70;99.90;;;;;;5094413;27;20043;-69
2023/10/16 14:19:30;;;;;;;4.85;0.95;;;13.60;99.90;;;;;;5095010;27;20050;-69
2023/10/16 14:21:57;;;;;;;2.55;0.60;;;13.70;99.90;;;;;;5124881;27;20122;-69
2023/10/16 14:24:25;;;;;;;4.40;0.50;;;13.60;99.90;;;;;;5098552;27;20536;-69
2023/10/16 14:26:56;;;;;;;4.28;0.57;;;13.60;99.90;;;;;;5099832;27;20043;-69
2023/10/16 14:29:22;;;;;;;6.65;0.80;;;13.50;99.90;;;;;;5096728;27;20043;-69
2023/10/16 14:31:55;;;;;;;5.85;0.50;;;13.40;99.90;;;;;;5096244;27;20047;-69
2023/10/16 14:34:23;;;;;;;3.95;0.30;;;13.40;99.90;;;;;;5124977;27;21033;-69
2023/10/16 14:36:54;;;;;;;3.70;0.60;;;13.40;99.90;;;;;;5080757;27;20073;-69
2023/10/16 14:39:28;;;;;;;3.22;0.50;;;13.30;99.90;;;;;;5095638;27;20051;-69
2023/10/16 14:41:56;;;;;;;2.58;0.32;;;13.30;99.90;;;;;;5097101;27;20043;-69
2023/10/16 14:44:22;;;;;;;4.32;0.88;;;13.30;99.90;;;;;;5096862;27;20044;-69
2023/10/16 14:46:48;;;;;;;4.43;0.40;;;13.30;99.90;;;;;;5097057;27;20194;-69
2023/10/16 14:49:14;;;;;;;5.25;0.85;;;13.30;99.90;;;;;;5098735;27;20483;-69
2023/10/16 14:51:40;;;;;;;4.20;0.63;;;13.30;99.90;;;;;;5098205;27;20032;-69
2023/10/16 14:54:07;;;;;;;3.97;1.00;;;13.30;99.90;;;;;;5095603;27;20406;-69